sensor_id;sensor_type;location;lat;lon;timestamp;pressure;altitude;pressure_sealevel;temperature;humidity
17209;BME280;8720;48.488;9.202;2022-12-24T00:01:42;96536.34;;;15.30;63.01
17209;BME280;8720;48.488;9.202;2022-12-24T00:04:10;96543.41;;;15.29;63.27
17209;BME280;8720;48.488;9.202;2022-12-24T00:06:37;96547.91;;;15.27;63.21
17209;BME280;8720;48.488;9.202;2022-12-24T00:09:06;96545.25;;;15.27;63.15
17209;BME280;8720;48.488;9.202;2022-12-24T00:11:33;96523.78;;;15.18;62.86
17209;BME280;8720;48.488;9.202;2022-12-24T00:14:00;96537.34;;;15.27;63.22
17209;BME280;8720;48.488;9.202;2022-12-24T00:16:27;96533.94;;;15.25;63.19
17209;BME280;8720;48.488;9.202;2022-12-24T00:18:55;96539.16;;;15.27;63.23
17209;BME280;8720;48.488;9.202;2022-12-24T00:21:22;96532.16;;;15.26;62.85
17209;BME280;8720;48.488;9.202;2022-12-24T00:23:49;96539.22;;;15.25;63.06
17209;BME280;8720;48.488;9.202;2022-12-24T00:26:18;96541.03;;;15.25;62.69
17209;BME280;8720;48.488;9.202;2022-12-24T00:28:45;96550.63;;;15.26;62.91
17209;BME280;8720;48.488;9.202;2022-12-24T00:31:16;96544.88;;;15.18;62.70
17209;BME280;8720;48.488;9.202;2022-12-24T00:33:45;96550.63;;;15.26;62.67
17209;BME280;8720;48.488;9.202;2022-12-24T00:36:13;96535.19;;;15.18;62.47
17209;BME280;8720;48.488;9.202;2022-12-24T00:38:41;96538.00;;;15.15;62.65
17209;BME280;8720;48.488;9.202;2022-12-24T00:41:10;96548.16;;;15.23;62.42
17209;BME280;8720;48.488;9.202;2022-12-24T00:43:52;96552.63;;;15.21;62.31
17209;BME280;8720;48.488;9.202;2022-12-24T00:46:21;96558.91;;;15.18;62.48
17209;BME280;8720;48.488;9.202;2022-12-24T00:48:49;96566.59;;;15.23;62.54
17209;BME280;8720;48.488;9.202;2022-12-24T00:51:16;96572.69;;;15.23;62.45
17209;BME280;8720;48.488;9.202;2022-12-24T00:53:44;96572.94;;;15.19;62.16
17209;BME280;8720;48.488;9.202;2022-12-24T00:56:11;96571.91;;;15.21;62.08
17209;BME280;8720;48.488;9.202;2022-12-24T00:58:38;96565.81;;;15.21;61.98
17209;BME280;8720;48.488;9.202;2022-12-24T01:01:07;96576.34;;;15.21;61.99
17209;BME280;8720;48.488;9.202;2022-12-24T01:03:34;96579.00;;;15.21;62.15
17209;BME280;8720;48.488;9.202;2022-12-24T01:06:03;96574.53;;;15.21;61.90
17209;BME280;8720;48.488;9.202;2022-12-24T01:08:30;96585.03;;;15.23;62.22
17209;BME280;8720;48.488;9.202;2022-12-24T01:10:57;96592.94;;;15.23;61.66
17209;BME280;8720;48.488;9.202;2022-12-24T01:13:25;96584.47;;;15.16;61.76
17209;BME280;8720;48.488;9.202;2022-12-24T01:15:53;96600.78;;;15.24;61.86
17209;BME280;8720;48.488;9.202;2022-12-24T01:18:23;96609.53;;;15.25;61.85
17209;BME280;8720;48.488;9.202;2022-12-24T01:20:56;96616.50;;;15.26;61.78
17209;BME280;8720;48.488;9.202;2022-12-24T01:23:24;96608.81;;;15.21;61.52
17209;BME280;8720;48.488;9.202;2022-12-24T01:25:52;96622.63;;;15.26;61.77
17209;BME280;8720;48.488;9.202;2022-12-24T01:28:19;96613.94;;;15.24;61.32
17209;BME280;8720;48.488;9.202;2022-12-24T01:30:47;96616.66;;;15.23;61.33
17209;BME280;8720;48.488;9.202;2022-12-24T01:33:14;96628.19;;;15.20;61.18
17209;BME280;8720;48.488;9.202;2022-12-24T01:35:43;96632.59;;;15.20;61.61
17209;BME280;8720;48.488;9.202;2022-12-24T01:38:11;96638.81;;;15.19;61.19
17209;BME280;8720;48.488;9.202;2022-12-24T01:40:40;96635.69;;;15.11;61.54
17209;BME280;8720;48.488;9.202;2022-12-24T01:43:29;96637.19;;;15.16;61.51
17209;BME280;8720;48.488;9.202;2022-12-24T01:46:00;96638.81;;;15.19;60.84
17209;BME280;8720;48.488;9.202;2022-12-24T01:48:40;96628.50;;;15.14;61.45
17209;BME280;8720;48.488;9.202;2022-12-24T01:51:18;96638.75;;;15.20;61.41
17209;BME280;8720;48.488;9.202;2022-12-24T01:53:53;96639.59;;;15.21;61.23
17209;BME280;8720;48.488;9.202;2022-12-24T01:56:23;96643.16;;;15.20;61.07
17209;BME280;8720;48.488;9.202;2022-12-24T01:58:58;96642.31;;;15.19;61.46
17209;BME280;8720;48.488;9.202;2022-12-24T02:01:26;96645.94;;;15.17;61.33
17209;BME280;8720;48.488;9.202;2022-12-24T02:03:54;96628.66;;;15.11;61.14
17209;BME280;8720;48.488;9.202;2022-12-24T02:06:23;96658.13;;;15.19;61.03
17209;BME280;8720;48.488;9.202;2022-12-24T02:08:51;96652.00;;;15.19;61.29
17209;BME280;8720;48.488;9.202;2022-12-24T02:11:20;96659.81;;;15.20;61.07
17209;BME280;8720;48.488;9.202;2022-12-24T02:13:55;96685.31;;;15.20;61.19
17209;BME280;8720;48.488;9.202;2022-12-24T02:16:38;96683.69;;;15.17;61.15
17209;BME280;8720;48.488;9.202;2022-12-24T02:22:40;96678.63;;;15.13;61.44
17209;BME280;8720;48.488;9.202;2022-12-24T02:25:43;96685.84;;;15.09;61.77
17209;BME280;8720;48.488;9.202;2022-12-24T02:28:35;96695.50;;;15.09;61.57
17209;BME280;8720;48.488;9.202;2022-12-24T02:31:16;96701.63;;;15.09;61.26
17209;BME280;8720;48.488;9.202;2022-12-24T02:33:54;96695.78;;;15.03;61.09
17209;BME280;8720;48.488;9.202;2022-12-24T02:36:30;96704.56;;;15.03;61.19
17209;BME280;8720;48.488;9.202;2022-12-24T02:39:02;96707.91;;;15.07;61.50
17209;BME280;8720;48.488;9.202;2022-12-24T02:41:35;96694.16;;;15.00;61.32
17209;BME280;8720;48.488;9.202;2022-12-24T02:44:21;96693.84;;;15.06;61.65
17209;BME280;8720;48.488;9.202;2022-12-24T02:46:52;96695.50;;;15.09;61.62
17209;BME280;8720;48.488;9.202;2022-12-24T02:49:20;96691.03;;;15.11;61.67
17209;BME280;8720;48.488;9.202;2022-12-24T02:51:48;96707.63;;;15.13;61.53
17209;BME280;8720;48.488;9.202;2022-12-24T02:54:15;96704.81;;;15.16;61.42
17209;BME280;8720;48.488;9.202;2022-12-24T02:57:02;96716.22;;;15.16;61.64
17209;BME280;8720;48.488;9.202;2022-12-24T02:59:58;96715.38;;;15.16;61.91
17209;BME280;8720;48.488;9.202;2022-12-24T03:05:14;96703.84;;;15.18;61.31
17209;BME280;8720;48.488;9.202;2022-12-24T03:07:57;96716.09;;;15.19;61.44
17209;BME280;8720;48.488;9.202;2022-12-24T03:10:37;96734.47;;;15.21;61.49
17209;BME280;8720;48.488;9.202;2022-12-24T03:13:13;96728.34;;;15.20;60.92
17209;BME280;8720;48.488;9.202;2022-12-24T03:15:42;96728.34;;;15.20;61.12
17209;BME280;8720;48.488;9.202;2022-12-24T03:18:15;96743.28;;;15.20;61.16
17209;BME280;8720;48.488;9.202;2022-12-24T03:20:49;96730.97;;;15.20;61.08
17209;BME280;8720;48.488;9.202;2022-12-24T03:23:19;96739.75;;;15.21;61.14
17209;BME280;8720;48.488;9.202;2022-12-24T03:25:46;96745.00;;;15.21;61.18
17209;BME280;8720;48.488;9.202;2022-12-24T03:28:15;96745.78;;;15.23;61.39
17209;BME280;8720;48.488;9.202;2022-12-24T03:30:46;96767.16;;;15.17;61.18
17209;BME280;8720;48.488;9.202;2022-12-24T03:33:15;96772.84;;;15.26;60.97
17209;BME280;8720;48.488;9.202;2022-12-24T03:35:44;96781.56;;;15.28;61.07
17209;BME280;8720;48.488;9.202;2022-12-24T03:38:12;96782.19;;;15.33;61.31
17209;BME280;8720;48.488;9.202;2022-12-24T03:40:39;96772.34;;;15.37;60.81
17209;BME280;8720;48.488;9.202;2022-12-24T03:43:06;96763.38;;;15.41;61.10
17209;BME280;8720;48.488;9.202;2022-12-24T03:45:33;96765.81;;;15.45;60.84
17209;BME280;8720;48.488;9.202;2022-12-24T03:48:01;96769.25;;;15.48;60.97
17209;BME280;8720;48.488;9.202;2022-12-24T03:50:28;96784.91;;;15.51;60.95
17209;BME280;8720;48.488;9.202;2022-12-24T03:52:56;96790.06;;;15.54;60.94
17209;BME280;8720;48.488;9.202;2022-12-24T03:55:24;96780.41;;;15.53;60.86
17209;BME280;8720;48.488;9.202;2022-12-24T03:57:51;96780.28;;;15.56;60.48
17209;BME280;8720;48.488;9.202;2022-12-24T04:00:19;96781.16;;;15.56;60.50
17209;BME280;8720;48.488;9.202;2022-12-24T04:02:47;96782.00;;;15.57;60.54
17209;BME280;8720;48.488;9.202;2022-12-24T04:05:17;96781.16;;;15.56;60.45
17209;BME280;8720;48.488;9.202;2022-12-24T04:07:45;96779.44;;;15.55;60.59
17209;BME280;8720;48.488;9.202;2022-12-24T04:10:15;96767.19;;;15.54;60.42
17209;BME280;8720;48.488;9.202;2022-12-24T04:12:42;96772.38;;;15.56;60.62
17209;BME280;8720;48.488;9.202;2022-12-24T04:15:10;96766.25;;;15.55;60.18
17209;BME280;8720;48.488;9.202;2022-12-24T04:17:37;96771.69;;;15.52;60.17
17209;BME280;8720;48.488;9.202;2022-12-24T04:20:06;96769.75;;;15.56;60.46
17209;BME280;8720;48.488;9.202;2022-12-24T04:22:33;96767.09;;;15.56;60.67
17209;BME280;8720;48.488;9.202;2022-12-24T04:25:00;96761.41;;;15.46;60.45
17209;BME280;8720;48.488;9.202;2022-12-24T04:27:29;96772.59;;;15.51;60.21
17209;BME280;8720;48.488;9.202;2022-12-24T04:29:56;96786.06;;;15.45;60.39
17209;BME280;8720;48.488;9.202;2022-12-24T04:32:25;96800.88;;;15.48;60.42
17209;BME280;8720;48.488;9.202;2022-12-24T04:34:52;96778.84;;;15.48;60.17
17209;BME280;8720;48.488;9.202;2022-12-24T04:37:19;96768.31;;;15.48;60.18
17209;BME280;8720;48.488;9.202;2022-12-24T04:39:46;96768.38;;;15.47;60.23
17209;BME280;8720;48.488;9.202;2022-12-24T04:42:13;96776.16;;;15.50;60.16
17209;BME280;8720;48.488;9.202;2022-12-24T04:44:42;96780.56;;;15.50;60.22
17209;BME280;8720;48.488;9.202;2022-12-24T04:47:09;96792.03;;;15.48;60.24
17209;BME280;8720;48.488;9.202;2022-12-24T04:49:36;96803.44;;;15.49;60.09
17209;BME280;8720;48.488;9.202;2022-12-24T04:52:04;96811.50;;;15.46;60.03
17209;BME280;8720;48.488;9.202;2022-12-24T04:54:31;96802.75;;;15.45;60.14
17209;BME280;8720;48.488;9.202;2022-12-24T04:56:58;96797.63;;;15.41;59.92
17209;BME280;8720;48.488;9.202;2022-12-24T04:59:25;96800.19;;;15.44;59.79
17209;BME280;8720;48.488;9.202;2022-12-24T05:01:54;96813.44;;;15.42;60.11
17209;BME280;8720;48.488;9.202;2022-12-24T05:04:21;96817.91;;;15.40;60.04
17209;BME280;8720;48.488;9.202;2022-12-24T05:06:48;96817.03;;;15.40;60.11
17209;BME280;8720;48.488;9.202;2022-12-24T05:09:16;96816.25;;;15.38;60.10
17209;BME280;8720;48.488;9.202;2022-12-24T05:11:43;96826.88;;;15.36;60.01
17209;BME280;8720;48.488;9.202;2022-12-24T05:14:10;96829.41;;;15.38;60.15
17209;BME280;8720;48.488;9.202;2022-12-24T05:16:37;96829.34;;;15.39;60.14
17209;BME280;8720;48.488;9.202;2022-12-24T05:19:06;96815.25;;;15.40;59.86
17209;BME280;8720;48.488;9.202;2022-12-24T05:21:33;96828.22;;;15.45;60.05
17209;BME280;8720;48.488;9.202;2022-12-24T05:24:01;96814.22;;;15.44;60.00
17209;BME280;8720;48.488;9.202;2022-12-24T05:26:49;96826.53;;;15.44;60.36
17209;BME280;8720;48.488;9.202;2022-12-24T05:29:17;96846.41;;;15.51;60.32
17209;BME280;8720;48.488;9.202;2022-12-24T05:31:45;96855.03;;;15.55;60.20
17209;BME280;8720;48.488;9.202;2022-12-24T05:34:16;96842.63;;;15.57;60.43
17209;BME280;8720;48.488;9.202;2022-12-24T05:36:43;96848.69;;;15.59;60.41
17209;BME280;8720;48.488;9.202;2022-12-24T05:39:13;96853.88;;;15.60;60.52
17209;BME280;8720;48.488;9.202;2022-12-24T05:41:41;96834.53;;;15.61;60.61
17209;BME280;8720;48.488;9.202;2022-12-24T05:44:08;96825.75;;;15.61;60.48
17209;BME280;8720;48.488;9.202;2022-12-24T05:46:35;96832.88;;;15.59;60.15
17209;BME280;8720;48.488;9.202;2022-12-24T05:49:03;96831.25;;;15.56;60.33
17209;BME280;8720;48.488;9.202;2022-12-24T05:51:31;96827.06;;;15.52;60.06
17209;BME280;8720;48.488;9.202;2022-12-24T05:53:58;96834.22;;;15.48;60.20
17209;BME280;8720;48.488;9.202;2022-12-24T05:56:26;96838.72;;;15.46;60.29
17209;BME280;8720;48.488;9.202;2022-12-24T05:58:53;96832.69;;;15.44;60.15
17209;BME280;8720;48.488;9.202;2022-12-24T06:01:21;96823.03;;;15.43;59.79
17209;BME280;8720;48.488;9.202;2022-12-24T06:03:50;96838.06;;;15.41;60.16
17209;BME280;8720;48.488;9.202;2022-12-24T06:06:20;96840.75;;;15.40;59.91
17209;BME280;8720;48.488;9.202;2022-12-24T06:08:51;96838.19;;;15.38;59.91
17209;BME280;8720;48.488;9.202;2022-12-24T06:11:25;96845.34;;;15.35;59.75
17209;BME280;8720;48.488;9.202;2022-12-24T06:13:53;96845.50;;;15.32;60.06
17209;BME280;8720;48.488;9.202;2022-12-24T06:16:22;96841.19;;;15.31;60.16
17209;BME280;8720;48.488;9.202;2022-12-24T06:18:49;96848.22;;;15.30;60.03
17209;BME280;8720;48.488;9.202;2022-12-24T06:21:17;96844.91;;;15.25;60.07
17209;BME280;8720;48.488;9.202;2022-12-24T06:23:45;96845.66;;;15.29;59.78
17209;BME280;8720;48.488;9.202;2022-12-24T06:26:17;96825.84;;;15.20;59.98
17209;BME280;8720;48.488;9.202;2022-12-24T06:28:46;96832.06;;;15.19;59.64
17209;BME280;8720;48.488;9.202;2022-12-24T06:31:18;96835.50;;;15.20;59.66
17209;BME280;8720;48.488;9.202;2022-12-24T06:33:45;96827.25;;;15.09;59.93
17209;BME280;8720;48.488;9.202;2022-12-24T06:36:16;96842.91;;;15.12;59.65
17209;BME280;8720;48.488;9.202;2022-12-24T06:38:43;96842.41;;;15.04;60.07
17209;BME280;8720;48.488;9.202;2022-12-24T06:41:11;96839.09;;;14.99;59.96
17209;BME280;8720;48.488;9.202;2022-12-24T06:43:43;96841.75;;;14.99;59.91
17209;BME280;8720;48.488;9.202;2022-12-24T06:46:10;96851.50;;;14.97;59.83
17209;BME280;8720;48.488;9.202;2022-12-24T06:48:38;96853.41;;;14.93;59.87
17209;BME280;8720;48.488;9.202;2022-12-24T06:51:05;96838.09;;;14.83;59.82
17209;BME280;8720;48.488;9.202;2022-12-24T06:53:35;96852.34;;;14.77;59.60
17209;BME280;8720;48.488;9.202;2022-12-24T06:56:03;96872.25;;;14.84;59.91
17209;BME280;8720;48.488;9.202;2022-12-24T06:58:31;96877.59;;;14.83;59.86
17209;BME280;8720;48.488;9.202;2022-12-24T07:01:02;96886.66;;;14.76;60.20
17209;BME280;8720;48.488;9.202;2022-12-24T07:03:31;96878.03;;;14.72;60.08
17209;BME280;8720;48.488;9.202;2022-12-24T07:05:58;96895.25;;;14.81;60.13
17209;BME280;8720;48.488;9.202;2022-12-24T07:08:26;96892.59;;;14.81;60.36
17209;BME280;8720;48.488;9.202;2022-12-24T07:10:53;96898.66;;;14.83;60.13
17209;BME280;8720;48.488;9.202;2022-12-24T07:13:21;96899.47;;;14.85;59.88
17209;BME280;8720;48.488;9.202;2022-12-24T07:15:57;96904.66;;;14.86;59.96
17209;BME280;8720;48.488;9.202;2022-12-24T07:18:26;96905.38;;;14.90;59.83
17209;BME280;8720;48.488;9.202;2022-12-24T07:20:53;96903.53;;;14.92;59.84
17209;BME280;8720;48.488;9.202;2022-12-24T07:23:20;96912.31;;;14.92;59.63
17209;BME280;8720;48.488;9.202;2022-12-24T07:25:47;96919.25;;;14.93;59.85
17209;BME280;8720;48.488;9.202;2022-12-24T07:28:15;96927.16;;;14.93;59.65
17209;BME280;8720;48.488;9.202;2022-12-24T07:30:42;96928.03;;;14.94;59.80
17209;BME280;8720;48.488;9.202;2022-12-24T07:33:09;96927.09;;;14.95;59.83
17209;BME280;8720;48.488;9.202;2022-12-24T07:35:38;96933.16;;;14.97;59.65
17209;BME280;8720;48.488;9.202;2022-12-24T07:38:07;96936.72;;;14.96;59.99
17209;BME280;8720;48.488;9.202;2022-12-24T07:40:34;96933.16;;;14.97;59.62
17209;BME280;8720;48.488;9.202;2022-12-24T07:43:01;96932.31;;;14.96;59.75
17209;BME280;8720;48.488;9.202;2022-12-24T07:45:29;96933.09;;;14.98;59.85
17209;BME280;8720;48.488;9.202;2022-12-24T07:47:56;96940.09;;;14.99;59.48
17209;BME280;8720;48.488;9.202;2022-12-24T07:50:23;96946.22;;;15.00;59.64
17209;BME280;8720;48.488;9.202;2022-12-24T07:52:51;96939.28;;;14.97;59.71
17209;BME280;8720;48.488;9.202;2022-12-24T07:55:19;96951.50;;;15.00;59.63
17209;BME280;8720;48.488;9.202;2022-12-24T07:57:46;96956.75;;;15.00;59.54
17209;BME280;8720;48.488;9.202;2022-12-24T08:00:14;96967.22;;;15.01;59.44
17209;BME280;8720;48.488;9.202;2022-12-24T08:02:41;96968.00;;;15.03;59.45
17209;BME280;8720;48.488;9.202;2022-12-24T08:05:09;96975.84;;;15.05;59.19
17209;BME280;8720;48.488;9.202;2022-12-24T08:07:36;96978.63;;;15.02;59.31
17209;BME280;8720;48.488;9.202;2022-12-24T08:10:06;96997.66;;;15.08;59.41
17209;BME280;8720;48.488;9.202;2022-12-24T08:12:34;97004.66;;;15.09;59.36
17209;BME280;8720;48.488;9.202;2022-12-24T08:15:01;97009.78;;;15.12;59.48
17209;BME280;8720;48.488;9.202;2022-12-24T08:17:28;97011.44;;;15.15;59.48
17209;BME280;8720;48.488;9.202;2022-12-24T08:19:55;97008.66;;;15.18;59.31
17209;BME280;8720;48.488;9.202;2022-12-24T08:22:22;97009.28;;;15.24;59.20
17209;BME280;8720;48.488;9.202;2022-12-24T08:24:50;97001.19;;;15.29;59.37
17209;BME280;8720;48.488;9.202;2022-12-24T08:27:18;97009.66;;;15.35;59.40
17209;BME280;8720;48.488;9.202;2022-12-24T08:29:45;97009.47;;;15.40;59.45
17209;BME280;8720;48.488;9.202;2022-12-24T08:32:13;97001.34;;;15.46;59.01
17209;BME280;8720;48.488;9.202;2022-12-24T08:34:40;97014.25;;;15.52;59.03
17209;BME280;8720;48.488;9.202;2022-12-24T08:41:27;97014.03;;;15.57;59.79
17209;BME280;8720;48.488;9.202;2022-12-24T08:43:56;97019.13;;;15.61;59.47
17209;BME280;8720;48.488;9.202;2022-12-24T08:46:23;97012.72;;;15.67;59.03
17209;BME280;8720;48.488;9.202;2022-12-24T08:48:50;97018.59;;;15.73;58.98
17209;BME280;8720;48.488;9.202;2022-12-24T08:51:17;97021.88;;;15.78;58.85
17209;BME280;8720;48.488;9.202;2022-12-24T08:53:45;97024.22;;;15.84;58.63
17209;BME280;8720;48.488;9.202;2022-12-24T08:56:12;97011.75;;;15.88;58.69
17209;BME280;8720;48.488;9.202;2022-12-24T08:58:39;97007.97;;;15.93;58.67
17209;BME280;8720;48.488;9.202;2022-12-24T09:01:14;97021.84;;;15.98;58.86
17209;BME280;8720;48.488;9.202;2022-12-24T09:03:42;97022.47;;;16.03;58.95
17209;BME280;8720;48.488;9.202;2022-12-24T09:06:09;97014.28;;;16.09;58.96
17209;BME280;8720;48.488;9.202;2022-12-24T09:08:37;97016.66;;;16.15;58.87
17209;BME280;8720;48.488;9.202;2022-12-24T09:11:06;97006.53;;;16.25;58.79
17209;BME280;8720;48.488;9.202;2022-12-24T09:13:37;97000.00;;;16.32;58.97
17209;BME280;8720;48.488;9.202;2022-12-24T09:16:06;97005.78;;;16.40;59.13
17209;BME280;8720;48.488;9.202;2022-12-24T09:18:35;97008.06;;;16.48;59.19
17209;BME280;8720;48.488;9.202;2022-12-24T09:21:05;97008.69;;;16.54;58.74
17209;BME280;8720;48.488;9.202;2022-12-24T09:23:35;97016.38;;;16.59;58.55
17209;BME280;8720;48.488;9.202;2022-12-24T09:26:05;97018.81;;;16.63;58.10
17209;BME280;8720;48.488;9.202;2022-12-24T09:28:34;97012.66;;;16.63;58.19
17209;BME280;8720;48.488;9.202;2022-12-24T09:31:04;97020.44;;;16.66;58.09
17209;BME280;8720;48.488;9.202;2022-12-24T09:33:36;97016.88;;;16.67;58.00
17209;BME280;8720;48.488;9.202;2022-12-24T09:36:04;97019.44;;;16.68;57.91
17209;BME280;8720;48.488;9.202;2022-12-24T09:38:34;97010.78;;;16.65;57.95
17209;BME280;8720;48.488;9.202;2022-12-24T09:41:11;97012.66;;;16.63;58.22
17209;BME280;8720;48.488;9.202;2022-12-24T09:43:44;97031.47;;;16.74;58.07
17209;BME280;8720;48.488;9.202;2022-12-24T09:46:22;97025.28;;;16.75;57.57
17209;BME280;8720;48.488;9.202;2022-12-24T09:49:02;97029.56;;;16.77;58.12
17209;BME280;8720;48.488;9.202;2022-12-24T09:51:38;97017.19;;;16.78;57.43
17209;BME280;8720;48.488;9.202;2022-12-24T09:54:16;97025.00;;;16.81;57.91
17209;BME280;8720;48.488;9.202;2022-12-24T09:56:46;97016.91;;;16.84;57.41
17209;BME280;8720;48.488;9.202;2022-12-24T09:59:17;97017.69;;;16.86;57.42
17209;BME280;8720;48.488;9.202;2022-12-24T10:01:48;97020.31;;;16.86;57.33
17209;BME280;8720;48.488;9.202;2022-12-24T10:04:21;97025.63;;;16.86;57.45
17209;BME280;8720;48.488;9.202;2022-12-24T10:06:58;97027.47;;;16.84;57.63
17209;BME280;8720;48.488;9.202;2022-12-24T10:09:38;97027.63;;;16.81;57.25
17209;BME280;8720;48.488;9.202;2022-12-24T10:12:20;97024.91;;;16.82;57.43
17209;BME280;8720;48.488;9.202;2022-12-24T10:15:00;97027.63;;;16.81;57.66
17209;BME280;8720;48.488;9.202;2022-12-24T10:17:47;97039.47;;;16.91;57.97
17209;BME280;8720;48.488;9.202;2022-12-24T10:20:36;97041.03;;;16.95;57.99
17209;BME280;8720;48.488;9.202;2022-12-24T10:23:17;97038.06;;;17.01;58.07
17209;BME280;8720;48.488;9.202;2022-12-24T10:26:03;97044.88;;;17.06;57.72
17209;BME280;8720;48.488;9.202;2022-12-24T10:28:46;97047.13;;;17.14;57.83
17209;BME280;8720;48.488;9.202;2022-12-24T10:31:15;97049.41;;;17.21;57.82
17209;BME280;8720;48.488;9.202;2022-12-24T10:33:49;97057.94;;;17.26;57.53
17209;BME280;8720;48.488;9.202;2022-12-24T10:36:24;97063.81;;;17.33;57.66
17209;BME280;8720;48.488;9.202;2022-12-24T10:38:53;97075.00;;;17.38;57.76
17209;BME280;8720;48.488;9.202;2022-12-24T10:41:23;97064.31;;;17.40;57.39
17209;BME280;8720;48.488;9.202;2022-12-24T10:43:53;97065.09;;;17.42;57.18
17209;BME280;8720;48.488;9.202;2022-12-24T10:46:23;97052.75;;;17.42;56.94
17209;BME280;8720;48.488;9.202;2022-12-24T10:48:58;97050.97;;;17.43;56.85
17209;BME280;8720;48.488;9.202;2022-12-24T10:51:36;97040.53;;;17.40;57.10
17209;BME280;8720;48.488;9.202;2022-12-24T10:54:11;97055.91;;;17.50;57.16
17209;BME280;8720;48.488;9.202;2022-12-24T10:56:42;97053.19;;;17.52;56.61
17209;BME280;8720;48.488;9.202;2022-12-24T10:59:24;97046.09;;;17.52;56.91
17209;BME280;8720;48.488;9.202;2022-12-24T11:01:54;97059.03;;;17.58;56.83
17209;BME280;8720;48.488;9.202;2022-12-24T11:04:25;97050.13;;;17.59;56.54
17209;BME280;8720;48.488;9.202;2022-12-24T11:06:59;97035.22;;;17.58;57.05
17209;BME280;8720;48.488;9.202;2022-12-24T11:09:30;97040.31;;;17.61;56.85
17209;BME280;8720;48.488;9.202;2022-12-24T11:12:00;97042.97;;;17.61;56.84
17209;BME280;8720;48.488;9.202;2022-12-24T11:14:36;97049.81;;;17.65;56.77
17209;BME280;8720;48.488;9.202;2022-12-24T11:17:05;97048.81;;;17.68;56.55
17209;BME280;8720;48.488;9.202;2022-12-24T11:19:36;97046.09;;;17.69;56.59
17209;BME280;8720;48.488;9.202;2022-12-24T11:22:17;97045.09;;;17.72;56.69
17209;BME280;8720;48.488;9.202;2022-12-24T11:24:45;97053.72;;;17.75;56.36
17209;BME280;8720;48.488;9.202;2022-12-24T11:27:29;97058.00;;;17.78;56.63
17209;BME280;8720;48.488;9.202;2022-12-24T11:30:27;97061.34;;;17.81;57.42
17209;BME280;8720;48.488;9.202;2022-12-24T11:33:19;97062.13;;;17.83;57.26
17209;BME280;8720;48.488;9.202;2022-12-24T11:35:55;97060.94;;;17.89;56.82
17209;BME280;8720;48.488;9.202;2022-12-24T11:38:27;97054.56;;;17.93;57.03
17209;BME280;8720;48.488;9.202;2022-12-24T11:41:05;97036.84;;;17.93;56.65
17209;BME280;8720;48.488;9.202;2022-12-24T11:43:42;97039.03;;;18.02;57.02
17209;BME280;8720;48.488;9.202;2022-12-24T11:46:21;97028.28;;;18.05;56.45
17209;BME280;8720;48.488;9.202;2022-12-24T11:49:22;97033.41;;;18.08;57.03
17209;BME280;8720;48.488;9.202;2022-12-24T11:52:20;97027.19;;;18.09;57.18
17209;BME280;8720;48.488;9.202;2022-12-24T11:55:18;97032.31;;;18.12;57.44
17209;BME280;8720;48.488;9.202;2022-12-24T11:57:57;97027.78;;;18.14;56.50
17209;BME280;8720;48.488;9.202;2022-12-24T12:00:27;97036.50;;;18.16;56.17
17209;BME280;8720;48.488;9.202;2022-12-24T12:02:59;97025.13;;;18.14;55.79
17209;BME280;8720;48.488;9.202;2022-12-24T12:05:33;97028.13;;;18.08;55.69
17209;BME280;8720;48.488;9.202;2022-12-24T12:08:16;97032.31;;;18.12;56.27
17209;BME280;8720;48.488;9.202;2022-12-24T12:10:48;97028.81;;;18.12;55.99
17209;BME280;8720;48.488;9.202;2022-12-24T12:13:23;97024.38;;;18.12;56.58
17209;BME280;8720;48.488;9.202;2022-12-24T12:16:10;97026.94;;;18.14;55.94
17209;BME280;8720;48.488;9.202;2022-12-24T12:18:46;97026.06;;;18.13;55.83
17209;BME280;8720;48.488;9.202;2022-12-24T12:21:24;97020.78;;;18.13;56.15
17209;BME280;8720;48.488;9.202;2022-12-24T12:23:58;97020.78;;;18.13;56.02
17209;BME280;8720;48.488;9.202;2022-12-24T12:26:32;97018.22;;;18.12;55.46
17209;BME280;8720;48.488;9.202;2022-12-24T12:29:12;97018.31;;;18.10;55.56
17209;BME280;8720;48.488;9.202;2022-12-24T12:31:52;97022.19;;;18.03;55.82
17209;BME280;8720;48.488;9.202;2022-12-24T12:34:29;97021.97;;;18.08;55.87
17209;BME280;8720;48.488;9.202;2022-12-24T12:37:08;97026.41;;;18.07;55.84
17209;BME280;8720;48.488;9.202;2022-12-24T12:39:41;97043.84;;;18.11;56.12
17209;BME280;8720;48.488;9.202;2022-12-24T12:42:21;97035.97;;;18.10;55.80
17209;BME280;8720;48.488;9.202;2022-12-24T12:45:21;97038.72;;;18.08;56.14
17209;BME280;8720;48.488;9.202;2022-12-24T12:48:30;97044.00;;;18.08;56.84
17209;BME280;8720;48.488;9.202;2022-12-24T12:51:07;97050.41;;;18.04;56.18
17209;BME280;8720;48.488;9.202;2022-12-24T12:53:52;97041.06;;;17.97;56.21
17209;BME280;8720;48.488;9.202;2022-12-24T12:56:29;97055.06;;;17.99;56.08
17209;BME280;8720;48.488;9.202;2022-12-24T12:59:03;97045.75;;;17.92;55.34
17209;BME280;8720;48.488;9.202;2022-12-24T13:01:44;97047.72;;;17.89;55.66
17209;BME280;8720;48.488;9.202;2022-12-24T13:04:46;97044.59;;;17.81;56.60
17209;BME280;8720;48.488;9.202;2022-12-24T13:07:45;97041.34;;;17.76;56.93
17209;BME280;8720;48.488;9.202;2022-12-24T13:14:04;97043.06;;;17.60;56.59
17209;BME280;8720;48.488;9.202;2022-12-24T13:17:07;97052.00;;;17.57;57.10
17209;BME280;8720;48.488;9.202;2022-12-24T13:20:09;97041.72;;;17.51;57.43
17209;BME280;8720;48.488;9.202;2022-12-24T13:22:47;97030.59;;;17.45;56.59
17209;BME280;8720;48.488;9.202;2022-12-24T13:25:26;97045.44;;;17.47;56.46
17209;BME280;8720;48.488;9.202;2022-12-24T13:27:55;97045.50;;;17.46;56.33
17209;BME280;8720;48.488;9.202;2022-12-24T13:30:37;97043.91;;;17.43;56.83
17209;BME280;8720;48.488;9.202;2022-12-24T13:33:08;97044.81;;;17.42;56.53
17209;BME280;8720;48.488;9.202;2022-12-24T13:35:56;97051.19;;;17.38;56.67
17209;BME280;8720;48.488;9.202;2022-12-24T13:38:42;97047.94;;;17.33;56.70
17209;BME280;8720;48.488;9.202;2022-12-24T13:41:49;97048.22;;;17.27;57.59
17209;BME280;8720;48.488;9.202;2022-12-24T13:44:28;97050.19;;;17.23;56.66
17209;BME280;8720;48.488;9.202;2022-12-24T13:47:24;97042.63;;;17.16;57.55
17209;BME280;8720;48.488;9.202;2022-12-24T13:49:53;97059.19;;;17.19;56.82
17209;BME280;8720;48.488;9.202;2022-12-24T13:52:26;97033.97;;;17.12;56.86